createdAt,value
2023-04-18T00:01:55.737Z,7.70
2023-04-18T00:04:23.831Z,7.70
2023-04-18T00:06:52.205Z,7.70
2023-04-18T00:09:20.156Z,7.50
2023-04-18T00:11:48.434Z,7.30
2023-04-18T00:14:16.544Z,7.30
2023-04-18T00:16:44.507Z,7.10
2023-04-18T00:19:14.292Z,7.20
2023-04-18T00:21:44.669Z,7.40
2023-04-18T00:24:12.959Z,7.60
2023-04-18T00:26:41.170Z,7.60
2023-04-18T00:29:09.173Z,7.60
2023-04-18T00:31:37.062Z,7.40
2023-04-18T00:34:05.285Z,7.40
2023-04-18T00:36:34.648Z,7.30
2023-04-18T00:39:02.737Z,7.40
2023-04-18T00:41:31.462Z,7.30
2023-04-18T00:43:59.373Z,7.40
2023-04-18T00:46:27.369Z,7.40
2023-04-18T00:48:55.546Z,7.40
2023-04-18T00:51:23.548Z,7.20
2023-04-18T00:53:53.146Z,7.30
2023-04-18T00:56:21.184Z,7.20
2023-04-18T00:58:49.088Z,7.20
2023-04-18T01:01:18.166Z,7.20
2023-04-18T01:03:46.355Z,7.30
2023-04-18T01:06:14.754Z,7.30
2023-04-18T01:08:44.229Z,7.20
2023-04-18T01:11:13.508Z,7.20
2023-04-18T01:13:41.495Z,7.20
2023-04-18T01:16:09.511Z,7.20
2023-04-18T01:18:40.159Z,7.20
2023-04-18T01:21:08.371Z,7.10
2023-04-18T01:23:36.670Z,7.10
2023-04-18T01:26:06.370Z,7.10
2023-04-18T01:28:37.890Z,7.10
2023-04-18T01:31:06.086Z,7.10
2023-04-18T01:33:34.067Z,7.20
2023-04-18T01:36:02.056Z,7.10
2023-04-18T01:38:30.251Z,7.10
2023-04-18T01:40:58.239Z,7.00
2023-04-18T01:43:27.545Z,6.90
2023-04-18T01:45:55.476Z,6.80
2023-04-18T01:48:23.405Z,6.80
2023-04-18T01:50:51.371Z,6.80
2023-04-18T01:53:19.441Z,6.90
2023-04-18T01:55:50.126Z,6.90
2023-04-18T01:58:18.600Z,6.90
2023-04-18T02:00:47.933Z,6.90
2023-04-18T02:03:16.042Z,6.90
2023-04-18T02:05:44.087Z,6.80
2023-04-18T02:08:12.554Z,6.80
2023-04-18T02:10:41.177Z,6.80
2023-04-18T02:13:09.396Z,6.80
2023-04-18T02:15:37.431Z,6.80
2023-04-18T02:18:06.940Z,6.70
2023-04-18T02:20:35.007Z,6.70
2023-04-18T02:23:03.350Z,6.80
2023-04-18T02:25:31.571Z,6.80
2023-04-18T02:27:59.827Z,6.80
2023-04-18T02:30:28.332Z,6.80
2023-04-18T02:32:57.877Z,6.80
2023-04-18T02:35:28.085Z,6.70
2023-04-18T02:37:56.284Z,6.70
2023-04-18T02:40:24.203Z,6.60
2023-04-18T02:42:52.141Z,6.60
2023-04-18T02:45:20.172Z,6.50
2023-04-18T02:47:55.477Z,6.40
2023-04-18T02:50:24.247Z,6.30
2023-04-18T02:52:53.627Z,6.40
2023-04-18T02:55:22.054Z,6.50
2023-04-18T02:57:50.041Z,6.40
2023-04-18T03:00:18.247Z,6.50
2023-04-18T03:02:46.246Z,6.40
2023-04-18T03:05:14.329Z,6.40
2023-04-18T03:07:42.298Z,6.40
2023-04-18T03:10:12.141Z,6.50
2023-04-18T03:12:40.140Z,6.50
2023-04-18T03:15:09.125Z,6.40
2023-04-18T03:17:37.469Z,6.40
2023-04-18T03:20:06.251Z,6.40
2023-04-18T03:22:34.155Z,6.40
2023-04-18T03:25:02.093Z,6.50
2023-04-18T03:27:31.346Z,6.50
2023-04-18T03:29:59.268Z,6.60
2023-04-18T03:32:27.265Z,6.60
2023-04-18T03:34:55.251Z,6.50
2023-04-18T03:37:23.164Z,6.60
2023-04-18T03:39:51.045Z,6.50
2023-04-18T03:42:19.033Z,6.50
2023-04-18T03:44:48.340Z,6.60
2023-04-18T03:47:16.918Z,6.60
2023-04-18T03:49:44.983Z,6.60
2023-04-18T03:52:13.149Z,6.50
2023-04-18T03:54:41.058Z,6.50
2023-04-18T03:57:09.092Z,6.60
2023-04-18T03:59:37.006Z,6.50
2023-04-18T04:02:06.495Z,6.50
2023-04-18T04:04:34.591Z,6.50
2023-04-18T04:07:02.657Z,6.50
2023-04-18T04:09:30.634Z,6.20
2023-04-18T04:11:58.541Z,6.10
2023-04-18T04:14:26.438Z,5.90
2023-04-18T04:16:54.288Z,5.80
2023-04-18T04:19:23.588Z,5.80
2023-04-18T04:21:51.794Z,5.70
2023-04-18T04:24:20.435Z,5.60
2023-04-18T04:26:48.698Z,5.60
2023-04-18T04:29:16.808Z,5.50
2023-04-18T04:31:44.928Z,5.50
2023-04-18T04:34:13.152Z,5.50
2023-04-18T04:36:43.186Z,5.50
2023-04-18T04:39:11.676Z,5.50
2023-04-18T04:41:40.560Z,5.40
2023-04-18T04:44:09.553Z,5.40
2023-04-18T04:46:40.196Z,5.40
2023-04-18T04:49:08.187Z,5.40
2023-04-18T04:51:36.144Z,5.40
2023-04-18T04:54:05.609Z,5.40
2023-04-18T04:56:33.867Z,5.50
2023-04-18T04:59:01.942Z,5.60
2023-04-18T05:01:29.953Z,5.60
2023-04-18T05:03:58.047Z,5.60
2023-04-18T05:06:26.415Z,5.50
2023-04-18T05:08:55.980Z,5.60
2023-04-18T05:11:25.255Z,5.70
2023-04-18T05:13:53.196Z,5.80
2023-04-18T05:16:21.243Z,5.90
2023-04-18T05:18:49.206Z,6.00
2023-04-18T05:21:17.213Z,6.20
2023-04-18T05:23:45.147Z,6.30
2023-04-18T05:26:13.052Z,6.30
2023-04-18T05:28:42.485Z,6.50
2023-04-18T05:31:10.565Z,6.60
2023-04-18T05:33:38.640Z,6.80
2023-04-18T05:36:07.673Z,6.90
2023-04-18T05:38:35.654Z,7.00
2023-04-18T05:41:03.826Z,7.10
2023-04-18T05:43:31.887Z,7.10
2023-04-18T05:46:01.297Z,7.20
2023-04-18T05:48:29.258Z,7.30
2023-04-18T05:50:57.869Z,7.50
2023-04-18T05:53:25.814Z,7.60
2023-04-18T05:55:53.725Z,7.70
2023-04-18T05:58:21.611Z,7.80
2023-04-18T06:00:49.606Z,8.00
2023-04-18T06:03:19.097Z,8.10
2023-04-18T06:05:47.472Z,8.30
2023-04-18T06:08:15.427Z,8.40
2023-04-18T06:10:43.310Z,8.50
2023-04-18T06:13:11.293Z,8.60
2023-04-18T06:15:39.203Z,8.50
2023-04-18T06:18:07.259Z,8.50
2023-04-18T06:20:36.628Z,8.50
2023-04-18T06:23:04.565Z,8.40
2023-04-18T06:25:32.562Z,8.50
2023-04-18T06:28:00.430Z,8.60
2023-04-18T06:30:28.439Z,8.60
2023-04-18T06:32:56.390Z,8.60
2023-04-18T06:35:26.323Z,8.60
2023-04-18T06:37:56.030Z,8.60
2023-04-18T06:40:24.038Z,8.70
2023-04-18T06:42:52.013Z,8.70
2023-04-18T06:45:20.138Z,8.80
2023-04-18T06:47:48.701Z,8.90
2023-04-18T06:50:18.370Z,8.80
2023-04-18T06:52:46.259Z,8.80
2023-04-18T06:55:15.788Z,8.90
2023-04-18T06:57:43.970Z,8.90
2023-04-18T07:00:12.886Z,8.80
2023-04-18T07:02:41.255Z,8.80
2023-04-18T07:05:09.735Z,8.90
2023-04-18T07:07:37.787Z,8.90
2023-04-18T07:10:06.834Z,8.90
2023-04-18T07:12:36.347Z,8.80
2023-04-18T07:15:04.803Z,8.80
2023-04-18T07:17:33.065Z,8.90
2023-04-18T07:20:01.410Z,8.90
2023-04-18T07:22:29.393Z,8.80
2023-04-18T07:24:57.482Z,8.90
2023-04-18T07:27:25.956Z,8.80
2023-04-18T07:29:55.764Z,8.90
2023-04-18T07:32:24.180Z,9.10
2023-04-18T07:34:52.830Z,9.10
2023-04-18T07:37:21.443Z,9.20
2023-04-18T07:39:49.527Z,9.30
2023-04-18T07:42:17.552Z,9.20
2023-04-18T07:44:45.638Z,9.20
2023-04-18T07:47:14.891Z,9.00
2023-04-18T07:49:42.803Z,9.10
2023-04-18T07:52:10.728Z,9.20
2023-04-18T07:54:39.008Z,9.10
2023-04-18T07:57:06.970Z,9.20
2023-04-18T07:59:35.072Z,9.30
2023-04-18T08:02:03.432Z,9.20
2023-04-18T08:04:32.961Z,9.20
2023-04-18T08:07:01.091Z,9.20
2023-04-18T08:09:29.177Z,9.30
2023-04-18T08:11:57.898Z,9.50
2023-04-18T08:14:26.051Z,9.60
2023-04-18T08:16:53.968Z,9.50
2023-04-18T08:19:21.985Z,9.50
2023-04-18T08:21:54.186Z,9.50
2023-04-18T08:24:22.120Z,9.50
2023-04-18T08:26:50.136Z,9.60
2023-04-18T08:29:18.061Z,9.80
2023-04-18T08:31:46.067Z,9.90
2023-04-18T08:34:14.051Z,10.00
2023-04-18T08:36:42.338Z,9.90
2023-04-18T08:39:11.818Z,9.90
2023-04-18T08:41:44.319Z,9.90
2023-04-18T08:44:13.496Z,9.90
2023-04-18T08:46:41.735Z,9.90
2023-04-18T08:49:11.808Z,10.00
2023-04-18T08:51:41.576Z,9.90
2023-04-18T08:54:12.315Z,10.00
2023-04-18T08:56:40.911Z,10.20
2023-04-18T08:59:09.543Z,10.10
2023-04-18T09:02:01.622Z,10.30
2023-04-18T09:04:41.039Z,10.40
2023-04-18T09:07:10.706Z,10.40
2023-04-18T09:09:44.503Z,10.50
2023-04-18T09:12:14.294Z,10.40
2023-04-18T09:14:47.146Z,10.80
2023-04-18T09:17:21.387Z,10.90
2023-04-18T09:19:56.105Z,11.10
2023-04-18T09:22:24.255Z,11.10
2023-04-18T09:24:57.343Z,11.20
2023-04-18T09:27:25.755Z,11.50
2023-04-18T09:29:57.806Z,12.00
2023-04-18T09:32:29.483Z,11.80
2023-04-18T09:34:59.758Z,11.90
2023-04-18T09:37:30.100Z,11.80
2023-04-18T09:39:59.425Z,12.00
2023-04-18T09:42:28.869Z,11.90
2023-04-18T09:45:05.105Z,12.00
2023-04-18T09:47:34.997Z,12.30
2023-04-18T09:50:04.550Z,12.20
2023-04-18T09:52:36.071Z,12.30
2023-04-18T09:55:07.178Z,12.60
2023-04-18T09:57:37.521Z,12.90
2023-04-18T10:00:14.052Z,13.30
2023-04-18T10:02:53.461Z,13.10
2023-04-18T10:05:25.352Z,13.20
2023-04-18T10:07:55.852Z,12.80
2023-04-18T10:10:26.282Z,12.90
2023-04-18T10:12:56.460Z,12.60
2023-04-18T10:15:26.741Z,12.70
2023-04-18T10:18:04.171Z,12.80
2023-04-18T10:20:35.734Z,12.80
2023-04-18T10:23:36.762Z,12.60
2023-04-18T10:26:07.112Z,12.60
2023-04-18T10:29:00.915Z,12.60
2023-04-18T10:31:30.236Z,12.80
2023-04-18T10:36:30.292Z,13.30
2023-04-18T10:39:03.038Z,13.20
2023-04-18T10:41:33.825Z,13.10
2023-04-18T10:44:18.212Z,13.50
2023-04-18T10:47:24.707Z,13.70
2023-04-18T10:50:06.886Z,13.90
2023-04-18T10:52:35.839Z,13.50
2023-04-18T10:55:14.840Z,13.30
2023-04-18T10:57:45.813Z,13.40
2023-04-18T11:00:16.785Z,14.00
2023-04-18T11:02:53.812Z,14.40
2023-04-18T11:05:24.323Z,14.70
2023-04-18T11:07:52.945Z,14.40
2023-04-18T11:10:22.739Z,14.60
2023-04-18T11:12:52.454Z,14.50
2023-04-18T11:15:22.518Z,14.30
2023-04-18T11:18:01.427Z,14.50
2023-04-18T11:20:30.095Z,14.40
2023-04-18T11:22:59.445Z,13.90
2023-04-18T11:25:29.928Z,14.00
2023-04-18T11:28:02.389Z,14.10
2023-04-18T11:30:37.980Z,14.30
2023-04-18T11:33:08.355Z,14.40
2023-04-18T11:35:38.573Z,14.20
2023-04-18T11:38:06.813Z,14.40
2023-04-18T11:40:34.994Z,14.50
2023-04-18T11:43:06.872Z,14.50
2023-04-18T11:45:36.935Z,14.70
2023-04-18T11:48:05.365Z,14.90
2023-04-18T11:50:37.633Z,14.40
2023-04-18T11:53:05.775Z,14.40
2023-04-18T11:55:34.092Z,14.30
2023-04-18T11:58:04.505Z,14.30
2023-04-18T12:00:36.280Z,14.80
2023-04-18T12:03:06.874Z,15.10
2023-04-18T12:05:37.119Z,14.70
2023-04-18T12:08:10.379Z,14.80
2023-04-18T12:10:46.637Z,15.10
2023-04-18T12:13:16.216Z,15.00
2023-04-18T12:15:45.962Z,15.60
2023-04-18T12:18:16.162Z,15.70
2023-04-18T12:20:50.298Z,15.90
2023-04-18T12:23:34.361Z,15.60
2023-04-18T12:26:03.942Z,15.60
2023-04-18T12:28:35.429Z,16.00
2023-04-18T12:31:05.905Z,16.40
2023-04-18T12:33:34.249Z,16.70
2023-04-18T12:36:02.212Z,17.10
2023-04-18T12:38:30.768Z,17.10
2023-04-18T12:40:58.740Z,16.60
2023-04-18T12:43:26.871Z,16.10
2023-04-18T12:45:56.527Z,15.90
2023-04-18T12:48:24.574Z,15.40
2023-04-18T12:50:52.627Z,15.60
2023-04-18T12:53:20.615Z,15.70
2023-04-18T12:55:48.614Z,15.50
2023-04-18T12:58:18.771Z,15.40
2023-04-18T13:00:47.084Z,15.10
2023-04-18T13:03:16.839Z,14.80
2023-04-18T13:05:44.949Z,14.70
2023-04-18T13:08:17.177Z,14.70
2023-04-18T13:10:47.387Z,14.80
2023-04-18T13:13:15.579Z,14.80
2023-04-18T13:15:43.608Z,14.60
2023-04-18T13:18:11.560Z,14.40
2023-04-18T13:20:41.105Z,14.30
2023-04-18T13:23:09.120Z,14.10
2023-04-18T13:25:37.217Z,14.10
2023-04-18T13:28:05.336Z,14.20
2023-04-18T13:30:35.609Z,14.20
2023-04-18T13:33:03.896Z,14.40
2023-04-18T13:35:31.964Z,14.60
2023-04-18T13:38:03.136Z,14.70
2023-04-18T13:40:31.107Z,14.80
2023-04-18T13:42:59.326Z,14.50
2023-04-18T13:45:27.407Z,14.50
2023-04-18T13:47:55.378Z,14.60
2023-04-18T13:50:24.150Z,14.70
2023-04-18T13:52:53.580Z,14.90
2023-04-18T13:55:23.057Z,15.10
2023-04-18T13:57:51.281Z,15.10
2023-04-18T14:00:20.264Z,15.00
2023-04-18T14:02:48.357Z,14.70
2023-04-18T14:05:16.540Z,14.50
2023-04-18T14:07:44.554Z,14.30
2023-04-18T14:10:12.799Z,14.30
2023-04-18T14:12:42.236Z,14.20
2023-04-18T14:15:11.524Z,14.00
2023-04-18T14:17:39.705Z,14.00
2023-04-18T14:20:09.466Z,14.00
2023-04-18T14:22:37.480Z,14.00
2023-04-18T14:25:06.179Z,14.10
2023-04-18T14:27:34.228Z,14.30
2023-04-18T14:30:04.272Z,14.60
2023-04-18T14:32:32.236Z,14.70
2023-04-18T14:35:00.202Z,14.90
2023-04-18T14:37:28.192Z,15.10
2023-04-18T14:39:56.348Z,15.40
2023-04-18T14:42:24.364Z,15.70
2023-04-18T14:44:52.430Z,15.80
2023-04-18T14:47:24.237Z,15.70
2023-04-18T14:49:52.388Z,15.70
2023-04-18T14:52:20.370Z,15.50
2023-04-18T14:54:48.336Z,15.60
2023-04-18T14:57:16.227Z,15.50
2023-04-18T14:59:44.154Z,15.50
2023-04-18T15:02:12.133Z,15.40
2023-04-18T15:04:41.716Z,15.30
2023-04-18T15:07:09.709Z,15.10
2023-04-18T15:09:38.078Z,15.20
2023-04-18T15:12:07.041Z,15.20
2023-04-18T15:14:35.081Z,15.00
2023-04-18T15:17:04.531Z,14.80
2023-04-18T15:19:32.583Z,14.80
2023-04-18T15:22:02.139Z,14.80
2023-04-18T15:24:30.315Z,14.60
2023-04-18T15:26:58.787Z,14.50
2023-04-18T15:29:27.108Z,14.60
2023-04-18T15:31:55.091Z,14.40
2023-04-18T15:34:23.211Z,14.30
2023-04-18T15:36:51.420Z,14.40
2023-04-18T15:39:23.425Z,14.60
2023-04-18T15:41:54.555Z,14.50
2023-04-18T15:44:23.073Z,14.50
2023-04-18T15:46:51.725Z,14.50
2023-04-18T15:49:19.662Z,14.50
2023-04-18T15:51:47.668Z,14.50
2023-04-18T15:54:15.942Z,14.40
2023-04-18T15:56:45.653Z,14.40
2023-04-18T15:59:13.675Z,14.70
2023-04-18T16:01:43.263Z,15.00
2023-04-18T16:04:12.801Z,15.10
2023-04-18T16:06:40.947Z,15.20
2023-04-18T16:09:09.902Z,15.20
2023-04-18T16:11:37.901Z,15.20
2023-04-18T16:14:07.333Z,15.00
2023-04-18T16:16:35.381Z,14.80
2023-04-18T16:19:04.260Z,14.70
2023-04-18T16:21:32.575Z,14.90
2023-04-18T16:24:00.558Z,15.00
2023-04-18T16:26:28.904Z,15.00
2023-04-18T16:28:57.098Z,15.00
2023-04-18T16:31:26.556Z,14.80
2023-04-18T16:33:55.103Z,14.60
2023-04-18T16:36:23.063Z,14.40
2023-04-18T16:38:51.201Z,14.30
2023-04-18T16:41:19.125Z,14.20
2023-04-18T16:43:50.247Z,14.00
2023-04-18T16:46:19.042Z,13.90
2023-04-18T16:48:49.848Z,13.90
2023-04-18T16:51:19.815Z,13.80
2023-04-18T16:53:47.731Z,13.70
2023-04-18T16:56:15.968Z,13.50
2023-04-18T16:58:44.018Z,13.50
2023-04-18T17:01:12.007Z,13.40
2023-04-18T17:03:40.551Z,13.40
2023-04-18T17:06:10.055Z,13.50
2023-04-18T17:08:38.617Z,13.50
2023-04-18T17:11:06.617Z,13.40
2023-04-18T17:13:35.951Z,13.50
2023-04-18T17:16:04.209Z,13.40
2023-04-18T17:18:33.258Z,13.40
2023-04-18T17:21:01.204Z,13.20
2023-04-18T17:23:32.814Z,13.20
2023-04-18T17:26:01.091Z,13.20
2023-04-18T17:28:29.042Z,13.10
2023-04-18T17:30:57.423Z,13.10
2023-04-18T17:33:25.682Z,12.90
2023-04-18T17:35:53.638Z,12.90
2023-04-18T17:38:21.537Z,12.90
2023-04-18T17:40:59.209Z,12.80
2023-04-18T17:43:27.391Z,12.80
2023-04-18T17:45:56.880Z,12.70
2023-04-18T17:48:24.905Z,12.80
2023-04-18T17:50:52.903Z,12.70
2023-04-18T17:53:20.849Z,12.60
2023-04-18T17:55:52.028Z,12.60
2023-04-18T17:58:20.269Z,12.60
2023-04-18T18:00:48.659Z,12.50
2023-04-18T18:03:19.319Z,12.40
2023-04-18T18:05:48.733Z,12.40
2023-04-18T18:08:17.215Z,12.30
2023-04-18T18:10:46.905Z,12.40
2023-04-18T18:13:16.561Z,12.20
2023-04-18T18:15:44.479Z,12.20
2023-04-18T18:18:12.399Z,12.20
2023-04-18T18:20:43.040Z,12.10
2023-04-18T18:23:11.154Z,12.20
2023-04-18T18:25:39.153Z,12.00
2023-04-18T18:28:07.364Z,12.10
2023-04-18T18:30:37.941Z,12.10
2023-04-18T18:33:06.010Z,12.00
2023-04-18T18:35:33.969Z,12.00
2023-04-18T18:38:01.963Z,11.90
2023-04-18T18:40:29.891Z,11.80
2023-04-18T18:42:57.893Z,11.80
2023-04-18T18:45:25.821Z,11.80
2023-04-18T18:47:55.272Z,11.80
2023-04-18T18:50:23.275Z,11.80
2023-04-18T18:52:51.202Z,11.80
2023-04-18T18:55:19.657Z,11.70
2023-04-18T18:57:48.173Z,11.70
2023-04-18T19:00:16.355Z,11.80
2023-04-18T19:03:08.306Z,11.70
2023-04-18T19:05:54.259Z,11.60
2023-04-18T19:08:22.643Z,11.70
2023-04-18T19:10:51.417Z,11.60
2023-04-18T19:13:23.661Z,11.60
2023-04-18T19:15:51.782Z,11.60
2023-04-18T19:18:21.435Z,11.60
2023-04-18T19:20:51.008Z,11.50
2023-04-18T19:23:19.491Z,11.50
2023-04-18T19:25:47.828Z,11.50
2023-04-18T19:28:18.128Z,11.50
2023-04-18T19:30:48.643Z,11.50
2023-04-18T19:33:17.287Z,11.50
2023-04-18T19:35:46.719Z,11.50
2023-04-18T19:38:14.799Z,11.40
2023-04-18T19:40:48.679Z,11.50
2023-04-18T19:43:19.361Z,11.50
2023-04-18T19:45:49.214Z,11.50
2023-04-18T19:48:17.322Z,11.50
2023-04-18T19:50:47.455Z,11.40
2023-04-18T19:53:16.388Z,11.30
2023-04-18T19:55:46.249Z,11.40
2023-04-18T19:58:35.531Z,11.30
2023-04-18T20:01:06.045Z,11.40
2023-04-18T20:03:34.897Z,11.40
2023-04-18T20:06:05.643Z,11.40
2023-04-18T20:08:33.936Z,11.40
2023-04-18T20:11:04.779Z,11.40
2023-04-18T20:13:32.876Z,11.40
2023-04-18T20:16:01.166Z,11.30
2023-04-18T20:18:30.368Z,11.30
2023-04-18T20:20:58.494Z,11.30
2023-04-18T20:23:28.302Z,11.30
2023-04-18T20:25:56.505Z,11.30
2023-04-18T20:28:24.566Z,11.20
2023-04-18T20:30:55.604Z,11.30
2023-04-18T20:33:23.653Z,11.30
2023-04-18T20:35:51.626Z,11.30
2023-04-18T20:38:23.609Z,11.20
2023-04-18T20:40:54.624Z,11.30
2023-04-18T20:43:22.832Z,11.20
2023-04-18T20:45:51.919Z,11.30
2023-04-18T20:48:20.007Z,11.20
2023-04-18T20:50:51.443Z,11.20
2023-04-18T20:53:20.638Z,11.10
2023-04-18T20:55:48.751Z,11.20
2023-04-18T20:58:18.075Z,11.20
2023-04-18T21:00:46.509Z,11.20
2023-04-18T21:03:14.942Z,11.20
2023-04-18T21:05:44.602Z,11.20
2023-04-18T21:08:12.851Z,11.10
2023-04-18T21:10:40.971Z,11.10
2023-04-18T21:13:09.219Z,11.10
2023-04-18T21:15:38.738Z,11.10
2023-04-18T21:18:06.969Z,11.10
2023-04-18T21:20:36.510Z,11.00
2023-04-18T21:23:04.645Z,11.00
2023-04-18T21:25:32.658Z,11.00
2023-04-18T21:28:01.032Z,11.00
2023-04-18T21:30:29.104Z,11.00
2023-04-18T21:32:58.479Z,11.00
2023-04-18T21:35:26.577Z,11.00
2023-04-18T21:37:54.588Z,11.00
2023-04-18T21:40:22.754Z,11.00
2023-04-18T21:42:50.934Z,10.90
2023-04-18T21:45:19.340Z,11.00
2023-04-18T21:47:47.265Z,11.00
2023-04-18T21:50:16.705Z,11.00
2023-04-18T21:52:44.800Z,10.90
2023-04-18T21:55:12.789Z,10.90
2023-04-18T21:57:40.794Z,10.90
2023-04-18T22:00:11.189Z,10.80
2023-04-18T22:02:39.337Z,10.80
2023-04-18T22:05:08.800Z,10.70
2023-04-18T22:07:46.695Z,10.70
2023-04-18T22:10:25.659Z,10.60
2023-04-18T22:12:56.467Z,10.60
2023-04-18T22:15:27.084Z,10.50
2023-04-18T22:17:55.195Z,10.60
2023-04-18T22:20:25.544Z,10.50
2023-04-18T22:22:55.308Z,10.50
2023-04-18T22:25:23.288Z,10.50
2023-04-18T22:27:51.202Z,10.50
2023-04-18T22:30:19.226Z,10.50
2023-04-18T22:32:47.701Z,10.60
2023-04-18T22:35:15.765Z,10.50
2023-04-18T22:37:43.698Z,10.50
2023-04-18T22:40:14.601Z,10.50
2023-04-18T22:42:43.306Z,10.60
2023-04-18T22:45:12.077Z,10.60
2023-04-18T22:47:41.207Z,10.60
2023-04-18T22:50:10.535Z,10.60
2023-04-18T22:52:38.581Z,10.60
2023-04-18T22:55:07.430Z,10.60
2023-04-18T22:57:36.694Z,10.60
2023-04-18T23:00:10.758Z,10.60
2023-04-18T23:02:39.174Z,10.60
2023-04-18T23:05:08.002Z,10.60
2023-04-18T23:07:36.062Z,10.60
2023-04-18T23:10:06.343Z,10.60
2023-04-18T23:12:34.307Z,10.60
2023-04-18T23:15:03.602Z,10.60
2023-04-18T23:17:31.722Z,10.60
2023-04-18T23:19:59.672Z,10.60
2023-04-18T23:22:27.647Z,10.60
2023-04-18T23:24:56.271Z,10.60
2023-04-18T23:27:24.208Z,10.60
2023-04-18T23:29:52.088Z,10.60
2023-04-18T23:32:21.527Z,10.60
2023-04-18T23:34:49.468Z,10.60
2023-04-18T23:37:17.387Z,10.60
2023-04-18T23:39:45.246Z,10.60
2023-04-18T23:42:13.167Z,10.50
2023-04-18T23:44:41.138Z,10.60
2023-04-18T23:47:09.107Z,10.60
2023-04-18T23:49:38.373Z,10.60
2023-04-18T23:52:07.116Z,10.50
2023-04-18T23:54:35.132Z,10.40
2023-04-18T23:57:03.066Z,10.30
2023-04-18T23:59:31.001Z,10.20
